createdAt,value
2023-05-10T00:00:59.161Z,34.92
2023-05-10T00:01:59.220Z,34.92
2023-05-10T00:02:59.513Z,34.93
2023-05-10T00:03:59.292Z,34.95
2023-05-10T00:04:59.313Z,34.95
2023-05-10T00:05:59.305Z,34.97
2023-05-10T00:06:59.307Z,35.00
2023-05-10T00:07:59.349Z,35.03
2023-05-10T00:08:59.361Z,35.04
2023-05-10T00:09:59.398Z,35.07
2023-05-10T00:10:59.420Z,35.06
2023-05-10T00:11:59.441Z,35.09
2023-05-10T00:12:59.444Z,35.09
2023-05-10T00:13:59.484Z,35.09
2023-05-10T00:14:59.448Z,35.13
2023-05-10T00:15:59.527Z,35.12
2023-05-10T00:16:59.573Z,35.12
2023-05-10T00:17:59.471Z,35.15
2023-05-10T00:18:59.488Z,35.18
2023-05-10T00:19:59.508Z,35.19
2023-05-10T00:20:59.541Z,35.22
2023-05-10T00:21:59.554Z,35.24
2023-05-10T00:22:59.565Z,35.21
2023-05-10T00:23:59.994Z,35.25
2023-05-10T00:24:59.613Z,35.26
2023-05-10T00:25:59.638Z,35.25
2023-05-10T00:26:59.639Z,35.25
2023-05-10T00:27:59.676Z,35.30
2023-05-10T00:28:59.663Z,35.29
2023-05-10T00:29:59.695Z,35.31
2023-05-10T00:30:59.741Z,35.32
2023-05-10T00:31:59.761Z,35.33
2023-05-10T00:32:59.806Z,35.34
2023-05-10T00:33:59.782Z,35.38
2023-05-10T00:34:59.886Z,35.38
2023-05-10T00:35:59.852Z,35.41
2023-05-10T00:36:59.884Z,35.41
2023-05-10T00:37:59.877Z,35.41
2023-05-10T00:39:00.009Z,35.43
2023-05-10T00:39:59.957Z,35.45
2023-05-10T00:41:00.025Z,35.48
2023-05-10T00:42:00.069Z,35.47
2023-05-10T00:43:00.146Z,35.51
2023-05-10T00:44:00.206Z,35.53
2023-05-10T00:45:00.150Z,35.53
2023-05-10T00:46:00.298Z,35.53
2023-05-10T00:47:00.214Z,35.55
2023-05-10T00:48:00.293Z,35.55
2023-05-10T00:49:00.558Z,35.61
2023-05-10T00:50:00.282Z,35.61
2023-05-10T00:51:00.284Z,35.62
2023-05-10T00:52:00.396Z,35.59
2023-05-10T00:53:00.357Z,35.62
2023-05-10T00:54:00.490Z,35.63
2023-05-10T00:55:00.387Z,35.64
2023-05-10T00:56:00.393Z,35.63
2023-05-10T00:57:00.442Z,35.68
2023-05-10T00:58:00.464Z,35.71
2023-05-10T00:59:01.021Z,35.68
2023-05-10T01:00:00.531Z,35.67
2023-05-10T01:01:00.577Z,35.70
2023-05-10T01:02:00.578Z,35.71
2023-05-10T01:03:00.681Z,35.74
2023-05-10T01:04:00.998Z,35.76
2023-05-10T01:05:00.648Z,35.74
2023-05-10T01:06:00.670Z,35.75
2023-05-10T01:07:00.666Z,35.78
2023-05-10T01:08:00.695Z,35.79
2023-05-10T01:09:01.018Z,35.79
2023-05-10T01:10:00.734Z,35.80
2023-05-10T01:11:00.769Z,35.84
2023-05-10T01:12:00.785Z,35.86
2023-05-10T01:13:00.854Z,35.82
2023-05-10T01:14:01.035Z,35.87
2023-05-10T01:15:00.880Z,35.87
2023-05-10T01:16:00.950Z,35.86
2023-05-10T01:17:00.957Z,35.88
2023-05-10T01:18:01.027Z,35.95
2023-05-10T01:19:00.996Z,35.93
2023-05-10T01:20:00.977Z,35.93
2023-05-10T01:21:01.017Z,35.99
2023-05-10T01:22:01.037Z,36.02
2023-05-10T01:23:01.177Z,36.00
2023-05-10T01:24:01.104Z,35.96
2023-05-10T01:25:01.166Z,35.99
2023-05-10T01:26:01.171Z,36.01
2023-05-10T01:27:01.226Z,36.00
2023-05-10T01:28:01.228Z,36.04
2023-05-10T01:29:01.499Z,36.03
2023-05-10T01:30:14.886Z,36.05
2023-05-10T01:31:02.381Z,36.13
2023-05-10T01:32:01.303Z,36.10
2023-05-10T01:33:01.327Z,36.07
2023-05-10T01:34:01.512Z,36.10
2023-05-10T01:35:01.283Z,36.08
2023-05-10T01:36:01.294Z,36.12
2023-05-10T01:37:01.297Z,36.14
2023-05-10T01:38:01.241Z,36.14
2023-05-10T01:39:01.495Z,36.14
2023-05-10T01:40:01.265Z,36.18
2023-05-10T01:41:01.265Z,36.18
2023-05-10T01:42:01.226Z,36.15
2023-05-10T01:43:01.235Z,36.17
2023-05-10T01:44:01.239Z,36.24
2023-05-10T01:45:01.245Z,36.19
2023-05-10T01:46:01.207Z,36.20
2023-05-10T01:47:01.330Z,36.27
2023-05-10T01:48:01.340Z,36.21
2023-05-10T01:49:01.528Z,36.30
2023-05-10T01:50:01.306Z,36.30
2023-05-10T01:51:01.389Z,36.29
2023-05-10T01:52:01.395Z,36.30
2023-05-10T01:53:01.416Z,36.29
2023-05-10T01:54:01.511Z,36.31
2023-05-10T01:55:01.523Z,36.28
2023-05-10T01:56:01.520Z,36.31
2023-05-10T01:57:01.563Z,36.33
2023-05-10T01:58:01.586Z,36.37
2023-05-10T01:59:01.647Z,36.30
2023-05-10T02:00:01.656Z,36.40
2023-05-10T02:01:01.767Z,36.36
2023-05-10T02:02:01.725Z,36.33
2023-05-10T02:03:01.753Z,36.39
2023-05-10T02:04:02.119Z,36.40
2023-05-10T02:05:01.834Z,36.40
2023-05-10T02:06:01.908Z,36.43
2023-05-10T02:07:01.901Z,36.40
2023-05-10T02:08:01.972Z,36.38
2023-05-10T02:09:01.967Z,36.42
2023-05-10T02:10:02.065Z,36.43
2023-05-10T02:11:02.108Z,36.43
2023-05-10T02:12:02.148Z,36.43
2023-05-10T02:13:02.180Z,36.44
2023-05-10T02:14:02.534Z,36.47
2023-05-10T02:15:02.191Z,36.47
2023-05-10T02:16:02.198Z,36.49
2023-05-10T02:17:02.399Z,36.51
2023-05-10T02:18:02.267Z,36.53
2023-05-10T02:19:02.544Z,36.49
2023-05-10T02:20:02.350Z,36.57
2023-05-10T02:21:02.347Z,36.57
2023-05-10T02:22:02.422Z,36.53
2023-05-10T02:23:02.463Z,36.50
2023-05-10T02:24:02.547Z,36.59
2023-05-10T02:25:02.492Z,36.59
2023-05-10T02:26:02.558Z,36.56
2023-05-10T02:27:02.589Z,36.58
2023-05-10T02:28:02.644Z,36.61
2023-05-10T02:29:02.678Z,36.60
2023-05-10T02:30:02.641Z,36.62
2023-05-10T02:31:02.743Z,36.65
2023-05-10T02:32:02.773Z,36.64
2023-05-10T02:33:02.778Z,36.61
2023-05-10T02:34:02.805Z,36.65
2023-05-10T02:35:02.828Z,36.68
2023-05-10T02:36:02.845Z,36.66
2023-05-10T02:37:02.869Z,36.66
2023-05-10T02:38:02.949Z,36.66
2023-05-10T02:39:03.049Z,36.68
2023-05-10T02:40:02.955Z,36.73
2023-05-10T02:41:03.013Z,36.69
2023-05-10T02:42:03.086Z,36.70
2023-05-10T02:43:03.069Z,36.71
2023-05-10T02:44:03.082Z,36.75
2023-05-10T02:45:03.142Z,36.70
2023-05-10T02:46:03.248Z,36.75
2023-05-10T02:47:03.204Z,36.77
2023-05-10T02:48:03.268Z,36.76
2023-05-10T02:49:03.281Z,36.73
2023-05-10T02:50:03.343Z,36.75
2023-05-10T02:51:03.346Z,36.77
2023-05-10T02:52:03.386Z,36.82
2023-05-10T02:53:03.461Z,36.78
2023-05-10T02:54:03.499Z,36.75
2023-05-10T02:55:03.720Z,36.80
2023-05-10T02:56:03.602Z,36.86
2023-05-10T02:57:03.700Z,36.81
2023-05-10T02:58:03.703Z,36.81
2023-05-10T02:59:03.753Z,36.78
2023-05-10T03:00:03.800Z,36.82
2023-05-10T03:01:03.860Z,36.82
2023-05-10T03:02:03.937Z,36.86
2023-05-10T03:03:04.008Z,36.82
2023-05-10T03:04:04.619Z,36.84
2023-05-10T03:05:04.087Z,36.84
2023-05-10T03:06:04.110Z,36.87
2023-05-10T03:07:04.113Z,36.90
2023-05-10T03:08:04.171Z,36.91
2023-05-10T03:09:04.290Z,36.93
2023-05-10T03:10:04.298Z,36.89
2023-05-10T03:11:04.333Z,36.94
2023-05-10T03:12:04.416Z,36.97
2023-05-10T03:13:04.462Z,36.99
2023-05-10T03:14:04.498Z,36.98
2023-05-10T03:15:04.516Z,36.93
2023-05-10T03:16:04.629Z,36.92
2023-05-10T03:17:04.618Z,36.97
2023-05-10T03:18:04.746Z,36.99
2023-05-10T03:19:04.700Z,36.95
2023-05-10T03:20:04.798Z,36.97
2023-05-10T03:21:04.824Z,36.96
2023-05-10T03:22:04.896Z,37.06
2023-05-10T03:23:04.886Z,37.04
2023-05-10T03:24:05.011Z,37.09
2023-05-10T03:25:05.017Z,37.07
2023-05-10T03:26:05.071Z,37.14
2023-05-10T03:27:05.128Z,37.07
2023-05-10T03:28:05.143Z,37.09
2023-05-10T03:29:05.203Z,37.05
2023-05-10T03:30:05.243Z,37.07
2023-05-10T03:31:05.333Z,37.11
2023-05-10T03:32:05.346Z,37.12
2023-05-10T03:33:05.446Z,37.06
2023-05-10T03:34:05.422Z,37.15
2023-05-10T03:35:05.471Z,37.12
2023-05-10T03:36:05.529Z,37.10
2023-05-10T03:37:05.544Z,37.13
2023-05-10T03:38:05.660Z,37.13
2023-05-10T03:39:06.042Z,37.18
2023-05-10T03:40:05.735Z,37.19
2023-05-10T03:41:05.781Z,37.23
2023-05-10T03:42:05.851Z,37.19
2023-05-10T03:43:05.874Z,37.26
2023-05-10T03:44:06.054Z,37.20
2023-05-10T03:45:06.005Z,37.21
2023-05-10T03:46:06.012Z,37.18
2023-05-10T03:47:06.227Z,37.18
2023-05-10T03:48:06.188Z,37.19
2023-05-10T03:49:06.215Z,37.20
2023-05-10T03:50:06.278Z,37.22
2023-05-10T03:51:06.320Z,37.25
2023-05-10T03:52:06.364Z,37.20
2023-05-10T03:53:06.430Z,37.21
2023-05-10T03:54:06.575Z,37.26
2023-05-10T03:55:06.487Z,37.28
2023-05-10T03:56:06.536Z,37.24
2023-05-10T03:57:06.648Z,37.24
2023-05-10T03:58:06.664Z,37.24
2023-05-10T03:59:06.699Z,37.24
2023-05-10T04:00:06.748Z,37.25
2023-05-10T04:01:06.815Z,37.21
2023-05-10T04:02:06.963Z,37.24
2023-05-10T04:03:06.974Z,37.26
2023-05-10T04:04:07.006Z,37.24
2023-05-10T04:05:07.007Z,37.27
2023-05-10T04:06:07.090Z,37.26
2023-05-10T04:07:07.138Z,37.28
2023-05-10T04:08:07.186Z,37.26
2023-05-10T04:09:07.596Z,37.28
2023-05-10T04:10:07.295Z,37.26
2023-05-10T04:11:07.350Z,37.25
2023-05-10T04:12:08.911Z,37.29
2023-05-10T04:13:07.434Z,37.28
2023-05-10T04:14:07.378Z,37.28
2023-05-10T04:15:07.395Z,37.28
2023-05-10T04:16:07.360Z,37.32
2023-05-10T04:17:07.582Z,37.29
2023-05-10T04:18:08.845Z,37.29
2023-05-10T04:19:07.350Z,37.34
2023-05-10T04:20:07.365Z,37.38
2023-05-10T04:21:07.363Z,37.37
2023-05-10T04:22:07.333Z,37.33
2023-05-10T04:23:07.305Z,37.34
2023-05-10T04:24:07.552Z,37.34
2023-05-10T04:25:07.390Z,37.38
2023-05-10T04:26:07.282Z,37.34
2023-05-10T04:27:07.318Z,37.35
2023-05-10T04:28:07.334Z,37.38
2023-05-10T04:29:07.327Z,37.40
2023-05-10T04:30:07.290Z,37.41
2023-05-10T04:31:07.323Z,37.36
2023-05-10T04:32:07.296Z,37.37
2023-05-10T04:33:07.395Z,37.40
2023-05-10T04:34:07.393Z,37.40
2023-05-10T04:35:07.567Z,37.41
2023-05-10T04:36:07.502Z,37.42
2023-05-10T04:37:07.553Z,37.42
2023-05-10T04:38:07.614Z,37.45
2023-05-10T04:39:07.657Z,37.43
2023-05-10T04:40:07.739Z,37.41
2023-05-10T04:41:07.776Z,37.43
2023-05-10T04:42:07.852Z,37.42
2023-05-10T04:43:07.926Z,37.52
2023-05-10T04:44:07.927Z,37.52
2023-05-10T04:45:08.010Z,37.49
2023-05-10T04:46:08.191Z,37.52
2023-05-10T04:47:08.937Z,37.55
2023-05-10T04:48:08.155Z,37.51
2023-05-10T04:49:08.579Z,37.51
2023-05-10T04:50:08.301Z,37.56
2023-05-10T04:51:08.346Z,37.59
2023-05-10T04:52:08.392Z,37.55
2023-05-10T04:53:08.483Z,37.58
2023-05-10T04:54:08.540Z,37.87
2023-05-10T04:55:08.619Z,37.98
2023-05-10T04:56:08.694Z,38.09
2023-05-10T04:57:08.739Z,38.37
2023-05-10T04:58:08.808Z,38.51
2023-05-10T04:59:08.848Z,38.72
2023-05-10T05:00:08.924Z,38.94
2023-05-10T05:01:08.893Z,39.44
2023-05-10T05:02:09.117Z,41.04
2023-05-10T05:03:09.015Z,41.45
2023-05-10T05:04:09.107Z,41.27
2023-05-10T05:05:08.907Z,41.11
2023-05-10T05:06:08.918Z,41.03
2023-05-10T05:07:08.908Z,41.14
2023-05-10T05:08:08.930Z,41.32
2023-05-10T05:09:08.916Z,41.45
2023-05-10T05:10:08.938Z,41.48
2023-05-10T05:11:08.912Z,41.53
2023-05-10T05:12:08.908Z,41.63
2023-05-10T05:13:08.987Z,41.69
2023-05-10T05:14:08.917Z,41.88
2023-05-10T05:15:09.945Z,41.95
2023-05-10T05:16:08.952Z,42.30
2023-05-10T05:17:08.924Z,45.03
2023-05-10T05:18:08.993Z,45.88
2023-05-10T05:19:08.921Z,44.67
2023-05-10T05:20:08.985Z,45.13
2023-05-10T05:21:08.966Z,45.91
2023-05-10T05:22:08.938Z,45.52
2023-05-10T05:23:08.972Z,46.14
2023-05-10T05:24:08.931Z,45.96
2023-05-10T05:25:08.947Z,46.04
2023-05-10T05:26:08.995Z,46.45
2023-05-10T05:27:08.951Z,46.79
2023-05-10T05:28:08.975Z,46.20
2023-05-10T05:29:09.131Z,46.22
2023-05-10T05:30:09.029Z,46.01
2023-05-10T05:31:09.078Z,45.95
2023-05-10T05:32:09.013Z,45.87
2023-05-10T05:33:08.961Z,45.60
2023-05-10T05:34:08.958Z,45.59
2023-05-10T05:35:08.945Z,45.45
2023-05-10T05:36:08.984Z,45.43
2023-05-10T05:37:08.961Z,45.33
2023-05-10T05:38:08.970Z,45.20
2023-05-10T05:39:09.137Z,45.03
2023-05-10T05:40:09.064Z,44.84
2023-05-10T05:41:09.161Z,44.78
2023-05-10T05:42:09.163Z,44.72
2023-05-10T05:43:09.171Z,44.57
2023-05-10T05:44:09.446Z,44.52
2023-05-10T05:45:09.041Z,44.41
2023-05-10T05:46:09.128Z,44.35
2023-05-10T05:47:09.053Z,44.32
2023-05-10T05:48:09.057Z,44.23
2023-05-10T05:49:09.056Z,44.14
2023-05-10T05:50:09.105Z,44.04
2023-05-10T05:51:09.057Z,43.94
2023-05-10T05:52:09.086Z,43.91
2023-05-10T05:53:09.095Z,43.85
2023-05-10T05:54:09.117Z,43.78
2023-05-10T05:55:09.110Z,43.72
2023-05-10T05:56:09.110Z,43.85
2023-05-10T05:57:09.093Z,44.04
2023-05-10T05:58:09.129Z,44.29
2023-05-10T05:59:09.137Z,44.28
2023-05-10T06:00:09.603Z,44.59
2023-05-10T06:01:09.126Z,45.04
2023-05-10T06:02:09.211Z,45.02
2023-05-10T06:03:09.311Z,45.34
2023-05-10T06:04:09.193Z,45.45
2023-05-10T06:05:09.234Z,45.59
2023-05-10T06:06:09.286Z,45.54
2023-05-10T06:07:09.290Z,45.55
2023-05-10T06:08:09.394Z,45.80
2023-05-10T06:09:09.433Z,45.88
2023-05-10T06:10:09.501Z,45.81
2023-05-10T06:11:09.541Z,45.92
2023-05-10T06:12:09.586Z,46.01
2023-05-10T06:13:09.652Z,46.09
2023-05-10T06:14:09.654Z,45.99
2023-05-10T06:15:09.727Z,45.96
2023-05-10T06:16:09.804Z,46.02
2023-05-10T06:17:09.780Z,46.02
2023-05-10T06:18:09.963Z,46.03
2023-05-10T06:19:09.880Z,46.08
2023-05-10T06:20:09.876Z,45.98
2023-05-10T06:21:09.922Z,45.97
2023-05-10T06:22:09.915Z,45.88
2023-05-10T06:23:09.972Z,45.98
2023-05-10T06:24:10.008Z,45.98
2023-05-10T06:25:10.044Z,46.02
2023-05-10T06:26:10.065Z,46.03
2023-05-10T06:27:10.113Z,46.03
2023-05-10T06:28:10.166Z,45.96
2023-05-10T06:29:10.159Z,45.94
2023-05-10T06:30:13.324Z,45.80
2023-05-10T06:31:10.186Z,45.79
2023-05-10T06:32:10.162Z,45.75
2023-05-10T06:33:10.193Z,45.76
2023-05-10T06:34:10.145Z,45.77
2023-05-10T06:35:10.608Z,45.88
2023-05-10T06:36:10.172Z,45.83
2023-05-10T06:37:10.114Z,45.86
2023-05-10T06:38:10.103Z,45.84
2023-05-10T06:39:10.091Z,45.87
2023-05-10T06:40:10.115Z,45.85
2023-05-10T06:41:10.098Z,45.78
2023-05-10T06:42:10.063Z,45.84
2023-05-10T06:43:10.074Z,45.78
2023-05-10T06:44:10.084Z,45.78
2023-05-10T06:45:10.086Z,45.85
2023-05-10T06:46:10.137Z,45.84
2023-05-10T06:47:10.082Z,45.83
2023-05-10T06:48:10.096Z,45.84
2023-05-10T06:49:10.048Z,45.84
2023-05-10T06:50:10.061Z,45.86
2023-05-10T06:51:10.060Z,46.25
2023-05-10T06:52:10.018Z,45.97
2023-05-10T06:53:10.016Z,45.47
2023-05-10T06:54:09.974Z,45.42
2023-05-10T06:55:10.005Z,45.72
2023-05-10T06:56:09.987Z,45.74
2023-05-10T06:57:23.380Z,46.24
2023-05-10T06:58:10.973Z,46.23
2023-05-10T06:59:09.980Z,46.05
2023-05-10T07:00:10.173Z,45.88
2023-05-10T07:01:10.076Z,45.72
2023-05-10T07:02:09.982Z,45.52
2023-05-10T07:03:10.035Z,45.39
2023-05-10T07:04:09.952Z,45.43
2023-05-10T07:05:10.167Z,45.37
2023-05-10T07:06:18.563Z,45.29
2023-05-10T07:07:10.936Z,45.40
2023-05-10T07:08:09.920Z,45.20
2023-05-10T07:09:09.936Z,45.13
2023-05-10T07:10:09.950Z,45.09
2023-05-10T07:11:09.902Z,44.98
2023-05-10T07:12:11.640Z,44.91
2023-05-10T07:13:09.964Z,44.83
2023-05-10T07:14:09.948Z,44.69
2023-05-10T07:15:09.867Z,44.61
2023-05-10T07:16:09.897Z,44.52
2023-05-10T07:17:09.931Z,44.48
2023-05-10T07:18:09.946Z,44.42
2023-05-10T07:19:09.821Z,44.32
2023-05-10T07:20:10.163Z,44.39
2023-05-10T07:21:09.841Z,44.25
2023-05-10T07:22:09.833Z,44.22
2023-05-10T07:23:09.816Z,44.32
2023-05-10T07:24:09.829Z,44.11
2023-05-10T07:25:09.828Z,43.84
2023-05-10T07:26:09.805Z,44.03
2023-05-10T07:27:10.670Z,43.96
2023-05-10T07:28:09.800Z,43.98
2023-05-10T07:29:09.785Z,43.94
2023-05-10T07:30:09.864Z,44.17
2023-05-10T07:31:09.838Z,44.02
2023-05-10T07:32:09.785Z,43.88
2023-05-10T07:33:09.825Z,43.77
2023-05-10T07:34:09.792Z,43.70
2023-05-10T07:35:09.772Z,43.63
2023-05-10T07:36:09.759Z,43.55
2023-05-10T07:37:09.794Z,43.60
2023-05-10T07:38:09.772Z,43.39
2023-05-10T07:39:09.952Z,43.42
2023-05-10T07:40:09.743Z,43.36
2023-05-10T07:41:09.745Z,43.40
2023-05-10T07:42:09.757Z,43.49
2023-05-10T07:43:09.715Z,43.46
2023-05-10T07:44:09.732Z,43.38
2023-05-10T07:45:09.741Z,43.71
2023-05-10T07:46:09.789Z,43.59
2023-05-10T07:47:09.733Z,43.45
2023-05-10T07:48:09.739Z,43.61
2023-05-10T07:49:09.809Z,43.46
2023-05-10T07:50:10.178Z,43.40
2023-05-10T07:51:09.935Z,43.73
2023-05-10T07:52:09.989Z,43.71
2023-05-10T07:53:10.106Z,43.67
2023-05-10T07:54:10.135Z,43.68
2023-05-10T07:55:10.647Z,43.67
2023-05-10T07:56:10.234Z,43.70
2023-05-10T07:57:10.270Z,43.69
2023-05-10T07:58:10.330Z,43.55
2023-05-10T07:59:12.703Z,43.52
2023-05-10T08:00:10.470Z,43.58
2023-05-10T08:01:10.513Z,43.52
2023-05-10T08:02:10.612Z,43.48
2023-05-10T08:03:10.878Z,43.55
2023-05-10T08:04:10.777Z,43.44
2023-05-10T08:05:10.776Z,43.51
2023-05-10T08:06:10.810Z,43.60
2023-05-10T08:07:10.859Z,43.57
2023-05-10T08:08:10.876Z,43.56
2023-05-10T08:09:10.976Z,43.62
2023-05-10T08:10:11.183Z,43.49
2023-05-10T08:11:11.037Z,43.52
2023-05-10T08:12:11.080Z,43.53
2023-05-10T08:13:11.115Z,43.59
2023-05-10T08:14:11.271Z,43.59
2023-05-10T08:15:11.642Z,43.71
2023-05-10T08:16:11.325Z,43.63
2023-05-10T08:17:11.375Z,43.58
2023-05-10T08:18:11.434Z,43.70
2023-05-10T08:19:11.505Z,43.72
2023-05-10T08:20:11.507Z,43.70
2023-05-10T08:21:11.568Z,43.72
2023-05-10T08:22:11.642Z,43.77
2023-05-10T08:23:11.659Z,43.81
2023-05-10T08:24:11.728Z,43.77
2023-05-10T08:25:11.751Z,43.94
2023-05-10T08:26:11.871Z,43.92
2023-05-10T08:27:11.854Z,43.94
2023-05-10T08:28:12.091Z,44.08
2023-05-10T08:29:11.978Z,44.14
2023-05-10T08:30:12.196Z,44.11
2023-05-10T08:31:12.131Z,44.15
2023-05-10T08:32:12.122Z,44.14
2023-05-10T08:33:12.284Z,44.20
2023-05-10T08:34:12.226Z,44.29
2023-05-10T08:35:12.680Z,44.27
2023-05-10T08:36:12.363Z,44.29
2023-05-10T08:37:12.414Z,44.27
2023-05-10T08:38:12.454Z,44.66
2023-05-10T08:39:22.777Z,44.30
2023-05-10T08:40:14.234Z,44.43
2023-05-10T08:41:12.533Z,44.51
2023-05-10T08:42:12.496Z,44.75
2023-05-10T08:43:12.503Z,44.97
2023-05-10T08:44:12.473Z,44.74
2023-05-10T08:45:12.666Z,43.62
2023-05-10T08:46:12.594Z,43.55
2023-05-10T08:47:12.648Z,43.31
2023-05-10T08:48:12.477Z,43.19
2023-05-10T08:49:12.429Z,43.09
2023-05-10T08:50:12.647Z,42.81
2023-05-10T08:51:12.455Z,42.73
2023-05-10T08:52:12.460Z,42.72
2023-05-10T08:53:12.401Z,42.61
2023-05-10T08:54:12.455Z,42.51
2023-05-10T08:55:12.686Z,42.41
2023-05-10T08:56:12.382Z,42.35
2023-05-10T08:57:12.450Z,42.24
2023-05-10T08:58:12.454Z,42.21
2023-05-10T08:59:12.457Z,42.06
2023-05-10T09:00:12.715Z,41.98
2023-05-10T09:01:12.541Z,41.90
2023-05-10T09:02:12.565Z,41.85
2023-05-10T09:03:12.610Z,41.79
2023-05-10T09:04:12.786Z,41.76
2023-05-10T09:05:13.209Z,41.65
2023-05-10T09:06:12.725Z,41.59
2023-05-10T09:07:12.805Z,41.49
2023-05-10T09:08:12.821Z,41.42
2023-05-10T09:09:12.894Z,41.39
2023-05-10T09:10:12.959Z,41.32
2023-05-10T09:11:13.000Z,41.31
2023-05-10T09:12:13.045Z,41.25
2023-05-10T09:13:13.112Z,41.20
2023-05-10T09:14:13.185Z,41.15
2023-05-10T09:15:13.250Z,41.06
2023-05-10T09:16:21.336Z,41.04
2023-05-10T09:17:14.360Z,40.99
2023-05-10T09:18:13.380Z,40.92
2023-05-10T09:19:13.393Z,40.90
2023-05-10T09:20:13.692Z,40.82
2023-05-10T09:21:13.197Z,40.78
2023-05-10T09:22:13.207Z,40.72
2023-05-10T09:23:13.245Z,40.67
2023-05-10T09:24:13.196Z,40.61
2023-05-10T09:25:13.739Z,40.59
2023-05-10T09:26:13.285Z,40.57
2023-05-10T09:27:13.336Z,40.52
2023-05-10T09:28:13.425Z,40.51
2023-05-10T09:29:15.213Z,40.45
2023-05-10T09:30:13.674Z,40.47
2023-05-10T09:31:13.478Z,40.48
2023-05-10T09:32:13.836Z,40.47
2023-05-10T09:33:13.462Z,40.44
2023-05-10T09:34:13.421Z,40.44
2023-05-10T09:35:13.416Z,40.44
2023-05-10T09:36:13.410Z,40.42
2023-05-10T09:37:13.397Z,40.43
2023-05-10T09:38:13.413Z,40.40
2023-05-10T09:39:13.390Z,40.45
2023-05-10T09:40:13.680Z,40.42
2023-05-10T09:41:13.353Z,40.47
2023-05-10T09:42:13.357Z,40.45
2023-05-10T09:43:13.372Z,40.45
2023-05-10T09:44:13.363Z,40.49
2023-05-10T09:46:13.756Z,40.51
2023-05-10T09:47:13.352Z,40.53
2023-05-10T09:48:13.366Z,40.53
2023-05-10T09:49:13.302Z,40.55
2023-05-10T09:50:13.304Z,40.59
2023-05-10T09:51:13.332Z,40.61
2023-05-10T09:52:13.339Z,40.63
2023-05-10T09:53:13.303Z,40.65
2023-05-10T09:54:13.305Z,40.68
2023-05-10T09:55:13.325Z,40.69
2023-05-10T09:56:13.276Z,40.74
2023-05-10T09:57:13.260Z,40.75
2023-05-10T09:58:13.285Z,40.78
2023-05-10T09:59:13.237Z,40.81
2023-05-10T10:00:13.217Z,40.82
2023-05-10T10:01:13.733Z,40.84
2023-05-10T10:02:13.237Z,40.85
2023-05-10T10:03:13.208Z,40.91
2023-05-10T10:04:13.229Z,40.91
2023-05-10T10:05:13.310Z,40.94
2023-05-10T10:06:26.376Z,40.96
2023-05-10T10:07:14.200Z,40.99
2023-05-10T10:08:13.208Z,40.99
2023-05-10T10:09:13.182Z,40.96
2023-05-10T10:10:13.162Z,40.96
2023-05-10T10:11:13.225Z,40.92
2023-05-10T10:12:13.135Z,40.88
2023-05-10T10:13:13.130Z,40.83
2023-05-10T10:14:13.133Z,40.79
2023-05-10T10:15:14.650Z,40.74
2023-05-10T10:16:13.184Z,40.65
2023-05-10T10:17:13.141Z,40.59
2023-05-10T10:18:13.090Z,40.51
2023-05-10T10:19:13.092Z,40.48
2023-05-10T10:20:13.098Z,40.39
2023-05-10T10:21:13.222Z,40.35
2023-05-10T10:22:13.062Z,40.28
2023-05-10T10:23:13.798Z,40.29
2023-05-10T10:24:13.091Z,40.25
2023-05-10T10:25:13.052Z,40.26
2023-05-10T10:26:13.249Z,40.22
2023-05-10T10:27:13.028Z,40.21
2023-05-10T10:28:13.005Z,40.21
2023-05-10T10:29:13.018Z,40.19
2023-05-10T10:30:13.035Z,40.23
2023-05-10T10:31:13.099Z,40.23
2023-05-10T10:32:12.994Z,40.25
2023-05-10T10:33:24.234Z,40.24
2023-05-10T10:34:14.073Z,40.22
2023-05-10T10:35:13.056Z,40.25
2023-05-10T10:36:13.251Z,40.26
2023-05-10T10:37:13.012Z,40.27
2023-05-10T10:38:12.996Z,40.74
2023-05-10T10:39:13.038Z,41.06
2023-05-10T10:40:13.017Z,41.41
2023-05-10T10:41:13.048Z,42.41
2023-05-10T10:42:13.034Z,42.55
2023-05-10T10:43:13.065Z,43.59
2023-05-10T10:44:13.115Z,44.26
2023-05-10T10:45:13.154Z,43.94
2023-05-10T10:46:13.220Z,44.05
2023-05-10T10:47:13.380Z,44.66
2023-05-10T10:48:13.281Z,45.94
2023-05-10T10:49:13.317Z,46.34
2023-05-10T10:50:13.361Z,46.44
2023-05-10T10:51:13.441Z,46.44
2023-05-10T10:52:13.483Z,45.80
2023-05-10T10:53:13.547Z,45.97
2023-05-10T10:54:13.636Z,45.75
2023-05-10T10:55:13.665Z,45.80
2023-05-10T10:56:13.679Z,45.70
2023-05-10T10:57:13.744Z,45.18
2023-05-10T10:58:13.756Z,44.86
2023-05-10T10:59:13.773Z,44.92
2023-05-10T11:00:13.800Z,44.27
2023-05-10T11:01:13.866Z,44.58
2023-05-10T11:02:13.891Z,44.49
2023-05-10T11:03:14.027Z,44.37
2023-05-10T11:04:14.094Z,43.91
2023-05-10T11:05:14.217Z,44.01
2023-05-10T11:06:14.051Z,43.98
2023-05-10T11:07:14.094Z,43.78
2023-05-10T11:08:14.101Z,43.51
2023-05-10T11:09:14.132Z,44.00
2023-05-10T11:10:14.248Z,44.13
2023-05-10T11:11:14.738Z,44.12
2023-05-10T11:12:14.242Z,44.15
2023-05-10T11:13:14.277Z,44.13
2023-05-10T11:14:14.314Z,44.12
2023-05-10T11:15:14.508Z,44.10
2023-05-10T11:16:14.820Z,44.11
2023-05-10T11:17:14.442Z,44.16
2023-05-10T11:18:14.439Z,44.18
2023-05-10T11:19:14.646Z,44.06
2023-05-10T11:20:14.641Z,44.10
2023-05-10T11:21:14.736Z,44.10
2023-05-10T11:22:14.560Z,43.96
2023-05-10T11:23:14.576Z,43.33
2023-05-10T11:24:14.653Z,43.89
2023-05-10T11:25:14.621Z,43.89
2023-05-10T11:26:14.679Z,44.10
2023-05-10T11:27:14.680Z,44.14
2023-05-10T11:28:14.717Z,44.06
2023-05-10T11:29:14.718Z,44.01
2023-05-10T11:30:14.835Z,44.12
2023-05-10T11:31:15.345Z,44.23
2023-05-10T11:32:14.811Z,44.24
2023-05-10T11:33:14.843Z,44.38
2023-05-10T11:34:14.859Z,44.54
2023-05-10T11:35:14.805Z,45.07
2023-05-10T11:36:15.265Z,45.07
2023-05-10T11:37:14.891Z,44.12
2023-05-10T11:38:15.256Z,43.79
2023-05-10T11:39:14.892Z,43.59
2023-05-10T11:40:15.090Z,43.39
2023-05-10T11:41:15.238Z,43.16
2023-05-10T11:42:15.016Z,43.08
2023-05-10T11:43:15.017Z,42.94
2023-05-10T11:44:15.015Z,42.80
2023-05-10T11:45:15.082Z,42.65
2023-05-10T11:46:15.204Z,42.49
2023-05-10T11:47:15.178Z,42.38
2023-05-10T11:48:15.246Z,42.28
2023-05-10T11:49:15.272Z,42.17
2023-05-10T11:50:15.639Z,42.03
2023-05-10T11:51:15.767Z,41.95
2023-05-10T11:52:15.372Z,41.83
2023-05-10T11:53:15.429Z,41.77
2023-05-10T11:54:15.435Z,41.66
2023-05-10T11:55:15.483Z,41.59
2023-05-10T11:56:15.562Z,41.50
2023-05-10T11:57:15.607Z,41.36
2023-05-10T11:58:15.627Z,41.32
2023-05-10T11:59:15.705Z,41.24
2023-05-10T12:00:15.854Z,41.17
2023-05-10T12:01:15.789Z,41.11
2023-05-10T12:02:15.870Z,41.03
2023-05-10T12:03:15.936Z,40.95
2023-05-10T12:04:16.084Z,40.87
2023-05-10T12:05:15.949Z,40.80
2023-05-10T12:06:16.029Z,40.78
2023-05-10T12:07:16.049Z,40.70
2023-05-10T12:08:16.119Z,40.65
2023-05-10T12:09:17.598Z,40.60
2023-05-10T12:10:16.560Z,40.59
2023-05-10T12:11:17.239Z,40.54
2023-05-10T12:12:16.330Z,40.54
2023-05-10T12:13:16.426Z,40.56
2023-05-10T12:14:16.413Z,40.54
2023-05-10T12:15:16.478Z,40.56
2023-05-10T12:16:16.523Z,40.60
2023-05-10T12:17:16.627Z,40.62
2023-05-10T12:18:16.728Z,40.68
2023-05-10T12:19:16.749Z,40.70
2023-05-10T12:20:17.050Z,40.72
2023-05-10T12:21:17.783Z,40.77
2023-05-10T12:22:16.874Z,40.81
2023-05-10T12:23:16.902Z,40.86
2023-05-10T12:24:17.044Z,40.86
2023-05-10T12:25:17.003Z,40.89
2023-05-10T12:26:17.280Z,40.90
2023-05-10T12:27:17.113Z,40.89
2023-05-10T12:28:17.198Z,40.91
2023-05-10T12:29:17.233Z,40.93
2023-05-10T12:30:17.406Z,40.95
2023-05-10T12:31:17.757Z,40.96
2023-05-10T12:32:17.490Z,40.99
2023-05-10T12:33:17.549Z,40.98
2023-05-10T12:34:17.559Z,40.96
2023-05-10T12:35:17.595Z,41.00
2023-05-10T12:36:17.745Z,40.97
2023-05-10T12:37:17.681Z,41.01
2023-05-10T12:38:17.731Z,40.99
2023-05-10T12:39:17.774Z,41.00
2023-05-10T12:40:18.138Z,41.01
2023-05-10T12:41:18.315Z,40.98
2023-05-10T12:42:17.947Z,41.00
2023-05-10T12:43:18.040Z,40.99
2023-05-10T12:44:18.088Z,41.00
2023-05-10T12:45:18.115Z,40.99
2023-05-10T12:46:18.364Z,41.02
2023-05-10T12:47:18.232Z,41.04
2023-05-10T12:48:18.298Z,41.12
2023-05-10T12:49:18.344Z,41.14
2023-05-10T12:50:18.617Z,41.17
2023-05-10T12:51:18.770Z,41.18
2023-05-10T12:52:18.521Z,41.22
2023-05-10T12:53:18.584Z,41.22
2023-05-10T12:54:18.590Z,41.24